sensor_id;sensor_type;location;lat;lon;timestamp;temperature;humidity
46816;DHT22;32787;53.316;8.670;2023-03-01T00:00:14;-3273.40;90.30
46816;DHT22;32787;53.316;8.670;2023-03-01T00:02:40;-3273.50;90.50
46816;DHT22;32787;53.316;8.670;2023-03-01T00:05:06;-3273.60;90.40
46816;DHT22;32787;53.316;8.670;2023-03-01T00:07:33;-3273.60;90.30
46816;DHT22;32787;53.316;8.670;2023-03-01T00:09:58;-3273.50;90.30
46816;DHT22;32787;53.316;8.670;2023-03-01T00:12:24;-3273.50;90.30
46816;DHT22;32787;53.316;8.670;2023-03-01T00:14:49;-3273.60;90.40
46816;DHT22;32787;53.316;8.670;2023-03-01T00:17:15;-3273.40;90.30
46816;DHT22;32787;53.316;8.670;2023-03-01T00:19:41;-3273.50;90.50
46816;DHT22;32787;53.316;8.670;2023-03-01T00:22:06;-3273.60;90.30
46816;DHT22;32787;53.316;8.670;2023-03-01T00:24:32;-3273.40;90.20
46816;DHT22;32787;53.316;8.670;2023-03-01T00:26:57;-3273.30;90.30
46816;DHT22;32787;53.316;8.670;2023-03-01T00:29:24;-3273.30;90.40
46816;DHT22;32787;53.316;8.670;2023-03-01T00:31:50;-3273.40;90.60
46816;DHT22;32787;53.316;8.670;2023-03-01T00:34:16;-3273.30;90.50
46816;DHT22;32787;53.316;8.670;2023-03-01T00:36:41;-3273.30;90.50
46816;DHT22;32787;53.316;8.670;2023-03-01T00:39:12;-3273.30;90.60
46816;DHT22;32787;53.316;8.670;2023-03-01T00:41:37;-3273.30;90.60
46816;DHT22;32787;53.316;8.670;2023-03-01T00:44:03;-3273.20;90.60
46816;DHT22;32787;53.316;8.670;2023-03-01T00:46:29;-3273.10;90.60
46816;DHT22;32787;53.316;8.670;2023-03-01T00:48:55;-3273.10;90.70
46816;DHT22;32787;53.316;8.670;2023-03-01T00:51:24;-3273.10;90.80
46816;DHT22;32787;53.316;8.670;2023-03-01T00:53:53;-3273.10;90.90
46816;DHT22;32787;53.316;8.670;2023-03-01T00:56:19;-3273.10;91.00
46816;DHT22;32787;53.316;8.670;2023-03-01T00:58:45;-3273.10;91.10
46816;DHT22;32787;53.316;8.670;2023-03-01T01:01:14;-3273.30;91.00
46816;DHT22;32787;53.316;8.670;2023-03-01T01:04:10;-3273.30;91.00
46816;DHT22;32787;53.316;8.670;2023-03-01T01:06:44;-3273.50;91.00
46816;DHT22;32787;53.316;8.670;2023-03-01T01:09:13;-3273.30;90.90
46816;DHT22;32787;53.316;8.670;2023-03-01T01:11:44;-3273.40;90.90
46816;DHT22;32787;53.316;8.670;2023-03-01T01:14:09;-3273.30;90.80
46816;DHT22;32787;53.316;8.670;2023-03-01T01:16:35;-3273.20;90.80
46816;DHT22;32787;53.316;8.670;2023-03-01T01:19:01;-3273.20;90.90
46816;DHT22;32787;53.316;8.670;2023-03-01T01:21:27;-3273.30;91.00
46816;DHT22;32787;53.316;8.670;2023-03-01T01:23:53;-3273.40;90.90
46816;DHT22;32787;53.316;8.670;2023-03-01T01:26:21;-3273.50;90.80
46816;DHT22;32787;53.316;8.670;2023-03-01T01:28:47;-3273.50;90.80
46816;DHT22;32787;53.316;8.670;2023-03-01T01:31:13;-3273.40;90.80
46816;DHT22;32787;53.316;8.670;2023-03-01T01:33:39;-3273.40;90.70
46816;DHT22;32787;53.316;8.670;2023-03-01T01:36:06;-3273.40;90.60
46816;DHT22;32787;53.316;8.670;2023-03-01T01:38:32;-3273.30;90.70
46816;DHT22;32787;53.316;8.670;2023-03-01T01:40:57;-3273.30;90.80
46816;DHT22;32787;53.316;8.670;2023-03-01T01:43:36;-3273.30;90.80
46816;DHT22;32787;53.316;8.670;2023-03-01T01:49:01;-3273.10;90.90
46816;DHT22;32787;53.316;8.670;2023-03-01T01:51:31;-3273.30;90.80
46816;DHT22;32787;53.316;8.670;2023-03-01T01:54:10;-3273.40;91.00
46816;DHT22;32787;53.316;8.670;2023-03-01T01:56:38;-3273.40;90.80
46816;DHT22;32787;53.316;8.670;2023-03-01T01:59:07;-3273.40;90.80
46816;DHT22;32787;53.316;8.670;2023-03-01T02:01:33;-3273.40;90.80
46816;DHT22;32787;53.316;8.670;2023-03-01T02:03:59;-3273.30;90.90
46816;DHT22;32787;53.316;8.670;2023-03-01T02:06:35;-3273.20;90.80
46816;DHT22;32787;53.316;8.670;2023-03-01T02:09:07;-3273.10;90.70
46816;DHT22;32787;53.316;8.670;2023-03-01T02:11:33;-3273.10;90.80
46816;DHT22;32787;53.316;8.670;2023-03-01T02:13:59;-3273.10;90.90
46816;DHT22;32787;53.316;8.670;2023-03-01T02:16:25;-3273.00;90.80
46816;DHT22;32787;53.316;8.670;2023-03-01T02:18:52;-3273.00;90.90
46816;DHT22;32787;53.316;8.670;2023-03-01T02:26:54;-3273.10;91.00
46816;DHT22;32787;53.316;8.670;2023-03-01T02:29:22;-3273.10;90.90
46816;DHT22;32787;53.316;8.670;2023-03-01T02:31:48;-3273.00;91.00
46816;DHT22;32787;53.316;8.670;2023-03-01T02:34:22;-3273.00;91.10
46816;DHT22;32787;53.316;8.670;2023-03-01T02:36:55;-3273.10;91.00
46816;DHT22;32787;53.316;8.670;2023-03-01T02:39:32;-3273.00;91.00
46816;DHT22;32787;53.316;8.670;2023-03-01T02:41:59;-3273.10;91.20
46816;DHT22;32787;53.316;8.670;2023-03-01T02:44:26;-3273.10;91.30
46816;DHT22;32787;53.316;8.670;2023-03-01T02:46:53;-3273.20;91.20
46816;DHT22;32787;53.316;8.670;2023-03-01T02:49:30;-3273.10;91.10
46816;DHT22;32787;53.316;8.670;2023-03-01T02:54:57;-3273.00;91.10
46816;DHT22;32787;53.316;8.670;2023-03-01T02:57:24;-3273.10;91.20
46816;DHT22;32787;53.316;8.670;2023-03-01T02:59:50;-3273.10;91.10
46816;DHT22;32787;53.316;8.670;2023-03-01T03:02:24;-3273.10;91.10
46816;DHT22;32787;53.316;8.670;2023-03-01T03:07:34;-3273.30;90.80
46816;DHT22;32787;53.316;8.670;2023-03-01T03:10:01;-3273.10;90.70
46816;DHT22;32787;53.316;8.670;2023-03-01T03:12:27;-3273.00;90.70
46816;DHT22;32787;53.316;8.670;2023-03-01T03:14:53;-3272.90;90.80
46816;DHT22;32787;53.316;8.670;2023-03-01T03:17:18;-3272.80;91.00
46816;DHT22;32787;53.316;8.670;2023-03-01T03:19:44;-3272.80;91.00
46816;DHT22;32787;53.316;8.670;2023-03-01T03:22:12;-3272.80;91.10
46816;DHT22;32787;53.316;8.670;2023-03-01T03:24:37;-3272.80;91.30
46816;DHT22;32787;53.316;8.670;2023-03-01T03:27:06;-3272.90;91.30
46816;DHT22;32787;53.316;8.670;2023-03-01T03:29:33;-3272.90;91.40
46816;DHT22;32787;53.316;8.670;2023-03-01T03:31:59;-3273.10;91.50
46816;DHT22;32787;53.316;8.670;2023-03-01T03:34:24;-3273.30;91.40
46816;DHT22;32787;53.316;8.670;2023-03-01T03:36:54;-3273.40;91.30
46816;DHT22;32787;53.316;8.670;2023-03-01T03:39:26;-3273.20;90.90
46816;DHT22;32787;53.316;8.670;2023-03-01T03:41:53;-3273.10;91.00
46816;DHT22;32787;53.316;8.670;2023-03-01T03:44:19;-3273.10;91.00
46816;DHT22;32787;53.316;8.670;2023-03-01T03:46:44;-3273.10;91.00
46816;DHT22;32787;53.316;8.670;2023-03-01T03:49:10;-3273.20;90.90
46816;DHT22;32787;53.316;8.670;2023-03-01T03:51:36;-3273.10;90.80
46816;DHT22;32787;53.316;8.670;2023-03-01T03:54:01;-3273.20;90.70
46816;DHT22;32787;53.316;8.670;2023-03-01T03:56:27;-3273.00;90.70
46816;DHT22;32787;53.316;8.670;2023-03-01T03:58:53;-3273.00;90.80
46816;DHT22;32787;53.316;8.670;2023-03-01T04:01:18;-3273.10;91.00
46816;DHT22;32787;53.316;8.670;2023-03-01T04:03:44;-3273.10;90.90
46816;DHT22;32787;53.316;8.670;2023-03-01T04:06:13;-3273.10;90.90
46816;DHT22;32787;53.316;8.670;2023-03-01T04:08:39;-3273.00;90.90
46816;DHT22;32787;53.316;8.670;2023-03-01T04:11:05;-3272.90;90.90
46816;DHT22;32787;53.316;8.670;2023-03-01T04:13:56;-3272.90;91.10
46816;DHT22;32787;53.316;8.670;2023-03-01T04:16:22;-3273.00;91.20
46816;DHT22;32787;53.316;8.670;2023-03-01T04:18:48;-3272.90;91.20
46816;DHT22;32787;53.316;8.670;2023-03-01T04:21:14;-3273.00;91.20
46816;DHT22;32787;53.316;8.670;2023-03-01T04:23:40;-3273.00;91.10
46816;DHT22;32787;53.316;8.670;2023-03-01T04:26:06;-3273.00;91.10
46816;DHT22;32787;53.316;8.670;2023-03-01T04:28:34;-3273.10;91.30
46816;DHT22;32787;53.316;8.670;2023-03-01T04:31:07;-3273.10;91.10
46816;DHT22;32787;53.316;8.670;2023-03-01T04:33:41;-3273.20;91.10
46816;DHT22;32787;53.316;8.670;2023-03-01T04:36:08;-3273.10;90.90
46816;DHT22;32787;53.316;8.670;2023-03-01T04:38:35;-3273.10;90.80
46816;DHT22;32787;53.316;8.670;2023-03-01T04:41:06;-3273.10;90.80
46816;DHT22;32787;53.316;8.670;2023-03-01T04:43:32;-3272.90;90.70
46816;DHT22;32787;53.316;8.670;2023-03-01T04:46:12;-3272.80;90.70
46816;DHT22;32787;53.316;8.670;2023-03-01T04:48:39;-3272.80;90.80
46816;DHT22;32787;53.316;8.670;2023-03-01T04:51:06;-3272.70;90.90
46816;DHT22;32787;53.316;8.670;2023-03-01T04:53:33;-3272.70;91.00
46816;DHT22;32787;53.316;8.670;2023-03-01T04:55:59;-3272.70;91.00
46816;DHT22;32787;53.316;8.670;2023-03-01T04:58:28;-3272.70;91.10
46816;DHT22;32787;53.316;8.670;2023-03-01T05:00:54;-3272.70;91.20
46816;DHT22;32787;53.316;8.670;2023-03-01T05:03:20;-3272.80;91.20
46816;DHT22;32787;53.316;8.670;2023-03-01T05:05:48;-3273.00;91.30
46816;DHT22;32787;53.316;8.670;2023-03-01T05:08:14;-3273.20;91.10
46816;DHT22;32787;53.316;8.670;2023-03-01T05:10:45;-3273.10;91.10
46816;DHT22;32787;53.316;8.670;2023-03-01T05:13:12;-3273.40;91.10
46816;DHT22;32787;53.316;8.670;2023-03-01T05:15:39;-3273.30;90.80
46816;DHT22;32787;53.316;8.670;2023-03-01T05:18:05;-3273.20;90.60
46816;DHT22;32787;53.316;8.670;2023-03-01T05:20:37;-3273.30;90.80
46816;DHT22;32787;53.316;8.670;2023-03-01T05:23:03;-3273.50;90.70
46816;DHT22;32787;53.316;8.670;2023-03-01T05:25:31;-3273.40;90.30
46816;DHT22;32787;53.316;8.670;2023-03-01T05:27:59;-3273.30;90.30
46816;DHT22;32787;53.316;8.670;2023-03-01T05:30:32;-3273.10;90.30
46816;DHT22;32787;53.316;8.670;2023-03-01T05:32:58;-3272.90;90.30
46816;DHT22;32787;53.316;8.670;2023-03-01T05:35:24;-3272.70;90.50
46816;DHT22;32787;53.316;8.670;2023-03-01T05:37:50;-3272.80;90.80
46816;DHT22;32787;53.316;8.670;2023-03-01T05:40:18;-3272.80;91.00
46816;DHT22;32787;53.316;8.670;2023-03-01T05:42:46;-3272.70;91.00
46816;DHT22;32787;53.316;8.670;2023-03-01T05:45:13;-3272.80;91.10
46816;DHT22;32787;53.316;8.670;2023-03-01T05:47:40;-3272.80;91.10
46816;DHT22;32787;53.316;8.670;2023-03-01T05:50:14;-3273.00;91.20
46816;DHT22;32787;53.316;8.670;2023-03-01T05:52:45;-3273.20;91.10
46816;DHT22;32787;53.316;8.670;2023-03-01T05:55:10;-3273.10;90.70
46816;DHT22;32787;53.316;8.670;2023-03-01T05:57:36;-3273.20;90.70
46816;DHT22;32787;53.316;8.670;2023-03-01T06:00:02;-3273.20;90.20
46816;DHT22;32787;53.316;8.670;2023-03-01T06:02:28;-3272.90;90.10
46816;DHT22;32787;53.316;8.670;2023-03-01T06:04:55;-3272.90;90.20
46816;DHT22;32787;53.316;8.670;2023-03-01T06:07:20;-3272.90;90.50
46816;DHT22;32787;53.316;8.670;2023-03-01T06:09:46;-3273.00;90.40
46816;DHT22;32787;53.316;8.670;2023-03-01T06:12:12;-3272.80;90.30
46816;DHT22;32787;53.316;8.670;2023-03-01T06:14:37;-3272.80;90.50
46816;DHT22;32787;53.316;8.670;2023-03-01T06:17:03;-3272.70;90.60
46816;DHT22;32787;53.316;8.670;2023-03-01T06:19:29;-3272.80;90.70
46816;DHT22;32787;53.316;8.670;2023-03-01T06:21:54;-3272.80;90.90
46816;DHT22;32787;53.316;8.670;2023-03-01T06:24:20;-3272.70;90.80
46816;DHT22;32787;53.316;8.670;2023-03-01T06:26:45;-3272.70;91.00
46816;DHT22;32787;53.316;8.670;2023-03-01T06:29:11;-3272.90;91.10
46816;DHT22;32787;53.316;8.670;2023-03-01T06:31:36;-3273.10;91.00
46816;DHT22;32787;53.316;8.670;2023-03-01T06:34:02;-3273.30;90.70
46816;DHT22;32787;53.316;8.670;2023-03-01T06:36:28;-3273.10;90.60
46816;DHT22;32787;53.316;8.670;2023-03-01T06:38:53;-3273.00;90.60
46816;DHT22;32787;53.316;8.670;2023-03-01T06:41:19;-3273.10;90.70
46816;DHT22;32787;53.316;8.670;2023-03-01T06:43:44;-3273.10;90.80
46816;DHT22;32787;53.316;8.670;2023-03-01T06:46:10;-3273.20;90.90
46816;DHT22;32787;53.316;8.670;2023-03-01T06:48:36;-3273.40;91.10
46816;DHT22;32787;53.316;8.670;2023-03-01T06:51:01;-3273.50;91.10
46816;DHT22;32787;53.316;8.670;2023-03-01T06:53:28;-3273.80;91.30
46816;DHT22;32787;53.316;8.670;2023-03-01T06:55:57;-3273.90;91.10
46816;DHT22;32787;53.316;8.670;2023-03-01T06:58:24;-3274.10;91.20
46816;DHT22;32787;53.316;8.670;2023-03-01T07:00:50;-3274.10;91.00
46816;DHT22;32787;53.316;8.670;2023-03-01T07:03:15;-3274.30;90.90
46816;DHT22;32787;53.316;8.670;2023-03-01T07:05:41;-3274.30;90.80
46816;DHT22;32787;53.316;8.670;2023-03-01T07:08:06;-3274.30;90.80
46816;DHT22;32787;53.316;8.670;2023-03-01T07:10:32;-3274.50;90.90
46816;DHT22;32787;53.316;8.670;2023-03-01T07:12:58;-3274.80;90.70
46816;DHT22;32787;53.316;8.670;2023-03-01T07:15:25;-3274.80;90.20
46816;DHT22;32787;53.316;8.670;2023-03-01T07:17:51;-3274.80;90.20
46816;DHT22;32787;53.316;8.670;2023-03-01T07:20:18;-3274.90;90.00
46816;DHT22;32787;53.316;8.670;2023-03-01T07:22:44;-3275.00;90.00
46816;DHT22;32787;53.316;8.670;2023-03-01T07:25:10;-3275.10;90.00
46816;DHT22;32787;53.316;8.670;2023-03-01T07:27:36;-3275.10;90.00
46816;DHT22;32787;53.316;8.670;2023-03-01T07:30:02;-3275.10;90.10
46816;DHT22;32787;53.316;8.670;2023-03-01T07:32:28;-3275.40;90.20
46816;DHT22;32787;53.316;8.670;2023-03-01T07:34:54;-3275.50;89.90
46816;DHT22;32787;53.316;8.670;2023-03-01T07:37:19;-3275.40;89.80
46816;DHT22;32787;53.316;8.670;2023-03-01T07:39:45;-3275.40;89.80
46816;DHT22;32787;53.316;8.670;2023-03-01T07:42:10;-3275.30;89.70
46816;DHT22;32787;53.316;8.670;2023-03-01T07:44:36;-3275.50;90.00
46816;DHT22;32787;53.316;8.670;2023-03-01T07:47:03;-3275.60;89.80
46816;DHT22;32787;53.316;8.670;2023-03-01T07:49:29;-3275.70;89.50
46816;DHT22;32787;53.316;8.670;2023-03-01T07:51:54;-3275.80;89.60
46816;DHT22;32787;53.316;8.670;2023-03-01T07:54:20;-3275.80;89.60
46816;DHT22;32787;53.316;8.670;2023-03-01T07:56:46;-3276.00;89.00
46816;DHT22;32787;53.316;8.670;2023-03-01T07:59:12;-3276.00;88.70
46816;DHT22;32787;53.316;8.670;2023-03-01T08:01:37;-3276.00;88.60
46816;DHT22;32787;53.316;8.670;2023-03-01T08:04:03;-3276.10;88.80
46816;DHT22;32787;53.316;8.670;2023-03-01T08:06:34;-3276.20;88.50
46816;DHT22;32787;53.316;8.670;2023-03-01T08:09:00;-3276.00;88.40
46816;DHT22;32787;53.316;8.670;2023-03-01T08:11:25;-3276.00;88.80
46816;DHT22;32787;53.316;8.670;2023-03-01T08:13:53;-3275.80;89.00
46816;DHT22;32787;53.316;8.670;2023-03-01T08:16:19;-3275.90;89.40
46816;DHT22;32787;53.316;8.670;2023-03-01T08:18:44;-3276.20;89.80
46816;DHT22;32787;53.316;8.670;2023-03-01T08:21:15;-3276.40;89.30
46816;DHT22;32787;53.316;8.670;2023-03-01T08:23:42;-3276.50;89.20
46816;DHT22;32787;53.316;8.670;2023-03-01T08:26:11;0.00;89.10
46816;DHT22;32787;53.316;8.670;2023-03-01T08:28:37;0.40;88.80
46816;DHT22;32787;53.316;8.670;2023-03-01T08:31:14;0.80;86.60
46816;DHT22;32787;53.316;8.670;2023-03-01T08:33:40;1.30;85.20
46816;DHT22;32787;53.316;8.670;2023-03-01T08:36:06;1.60;83.50
46816;DHT22;32787;53.316;8.670;2023-03-01T08:38:33;2.00;82.60
46816;DHT22;32787;53.316;8.670;2023-03-01T08:41:01;2.20;81.30
46816;DHT22;32787;53.316;8.670;2023-03-01T08:43:27;2.80;80.80
46816;DHT22;32787;53.316;8.670;2023-03-01T08:45:52;2.60;80.10
46816;DHT22;32787;53.316;8.670;2023-03-01T08:48:18;2.80;80.60
46816;DHT22;32787;53.316;8.670;2023-03-01T08:50:44;2.60;80.70
46816;DHT22;32787;53.316;8.670;2023-03-01T08:53:09;2.30;81.00
46816;DHT22;32787;53.316;8.670;2023-03-01T08:55:35;2.10;81.70
46816;DHT22;32787;53.316;8.670;2023-03-01T08:58:00;1.90;81.80
46816;DHT22;32787;53.316;8.670;2023-03-01T09:00:26;1.90;82.60
46816;DHT22;32787;53.316;8.670;2023-03-01T09:02:52;2.00;82.50
46816;DHT22;32787;53.316;8.670;2023-03-01T09:05:17;2.10;82.20
46816;DHT22;32787;53.316;8.670;2023-03-01T09:07:43;2.40;79.80
46816;DHT22;32787;53.316;8.670;2023-03-01T09:10:09;2.50;79.00
46816;DHT22;32787;53.316;8.670;2023-03-01T09:12:35;2.80;77.20
46816;DHT22;32787;53.316;8.670;2023-03-01T09:15:00;3.10;75.40
46816;DHT22;32787;53.316;8.670;2023-03-01T09:17:26;3.00;75.80
46816;DHT22;32787;53.316;8.670;2023-03-01T09:19:51;3.20;75.50
46816;DHT22;32787;53.316;8.670;2023-03-01T09:22:17;3.10;76.10
46816;DHT22;32787;53.316;8.670;2023-03-01T09:24:43;3.20;76.00
46816;DHT22;32787;53.316;8.670;2023-03-01T09:27:08;3.30;75.70
46816;DHT22;32787;53.316;8.670;2023-03-01T09:29:37;3.30;73.90
46816;DHT22;32787;53.316;8.670;2023-03-01T09:32:03;3.40;73.90
46816;DHT22;32787;53.316;8.670;2023-03-01T09:34:28;3.40;74.60
46816;DHT22;32787;53.316;8.670;2023-03-01T09:36:54;3.80;73.10
46816;DHT22;32787;53.316;8.670;2023-03-01T09:39:20;3.70;72.70
46816;DHT22;32787;53.316;8.670;2023-03-01T09:42:02;3.70;73.30
46816;DHT22;32787;53.316;8.670;2023-03-01T09:47:19;3.90;73.20
46816;DHT22;32787;53.316;8.670;2023-03-01T09:50:03;3.90;73.40
46816;DHT22;32787;53.316;8.670;2023-03-01T09:53:15;4.00;74.30
46816;DHT22;32787;53.316;8.670;2023-03-01T09:55:44;4.40;74.00
46816;DHT22;32787;53.316;8.670;2023-03-01T10:01:34;4.60;73.80
46816;DHT22;32787;53.316;8.670;2023-03-01T10:04:12;4.70;73.00
46816;DHT22;32787;53.316;8.670;2023-03-01T10:06:47;4.60;73.90
46816;DHT22;32787;53.316;8.670;2023-03-01T10:09:17;4.60;74.00
46816;DHT22;32787;53.316;8.670;2023-03-01T10:11:47;4.60;73.70
46816;DHT22;32787;53.316;8.670;2023-03-01T10:16:57;5.10;73.90
46816;DHT22;32787;53.316;8.670;2023-03-01T10:19:36;5.00;74.50
46816;DHT22;32787;53.316;8.670;2023-03-01T10:22:17;5.10;75.10
46816;DHT22;32787;53.316;8.670;2023-03-01T10:24:44;5.30;74.40
46816;DHT22;32787;53.316;8.670;2023-03-01T10:27:37;5.30;73.80
46816;DHT22;32787;53.316;8.670;2023-03-01T10:30:17;5.40;72.40
46816;DHT22;32787;53.316;8.670;2023-03-01T10:32:45;5.30;72.60
46816;DHT22;32787;53.316;8.670;2023-03-01T10:35:18;5.20;73.60
46816;DHT22;32787;53.316;8.670;2023-03-01T10:40:29;5.10;73.10
46816;DHT22;32787;53.316;8.670;2023-03-01T10:42:57;5.10;73.30
46816;DHT22;32787;53.316;8.670;2023-03-01T10:45:30;5.30;73.30
46816;DHT22;32787;53.316;8.670;2023-03-01T10:48:15;5.30;74.60
46816;DHT22;32787;53.316;8.670;2023-03-01T10:56:03;5.40;73.40
46816;DHT22;32787;53.316;8.670;2023-03-01T10:58:31;5.40;72.50
46816;DHT22;32787;53.316;8.670;2023-03-01T11:06:33;5.70;73.30
46816;DHT22;32787;53.316;8.670;2023-03-01T11:09:17;5.80;72.80
46816;DHT22;32787;53.316;8.670;2023-03-01T11:11:43;5.70;72.20
46816;DHT22;32787;53.316;8.670;2023-03-01T11:14:18;5.80;72.40
46816;DHT22;32787;53.316;8.670;2023-03-01T11:16:49;5.80;74.00
46816;DHT22;32787;53.316;8.670;2023-03-01T11:19:22;5.90;72.70
46816;DHT22;32787;53.316;8.670;2023-03-01T11:24:42;6.20;72.00
46816;DHT22;32787;53.316;8.670;2023-03-01T11:27:28;6.10;72.20
46816;DHT22;32787;53.316;8.670;2023-03-01T11:30:13;6.10;71.90
46816;DHT22;32787;53.316;8.670;2023-03-01T11:32:45;6.00;72.70
46816;DHT22;32787;53.316;8.670;2023-03-01T11:35:18;5.90;73.40
46816;DHT22;32787;53.316;8.670;2023-03-01T11:40:42;5.90;74.50
46816;DHT22;32787;53.316;8.670;2023-03-01T11:45:50;6.10;74.20
46816;DHT22;32787;53.316;8.670;2023-03-01T11:51:23;6.40;74.20
46816;DHT22;32787;53.316;8.670;2023-03-01T11:56:55;6.20;75.40
46816;DHT22;32787;53.316;8.670;2023-03-01T12:02:25;6.30;75.80
46816;DHT22;32787;53.316;8.670;2023-03-01T12:05:09;6.40;75.40
46816;DHT22;32787;53.316;8.670;2023-03-01T12:14:02;6.60;75.40
46816;DHT22;32787;53.316;8.670;2023-03-01T12:22:04;7.10;74.00
46816;DHT22;32787;53.316;8.670;2023-03-01T12:30:20;7.40;71.90
46816;DHT22;32787;53.316;8.670;2023-03-01T12:35:27;7.40;71.00
46816;DHT22;32787;53.316;8.670;2023-03-01T12:43:44;7.20;73.50
46816;DHT22;32787;53.316;8.670;2023-03-01T12:49:35;7.10;73.30
46816;DHT22;32787;53.316;8.670;2023-03-01T12:54:46;6.80;74.70
46816;DHT22;32787;53.316;8.670;2023-03-01T12:57:24;6.80;74.00
46816;DHT22;32787;53.316;8.670;2023-03-01T13:02:34;6.80;74.40
46816;DHT22;32787;53.316;8.670;2023-03-01T13:05:06;6.80;74.10
46816;DHT22;32787;53.316;8.670;2023-03-01T13:07:54;6.90;75.10
46816;DHT22;32787;53.316;8.670;2023-03-01T13:10:42;7.20;74.50
46816;DHT22;32787;53.316;8.670;2023-03-01T13:15:40;7.10;74.40
46816;DHT22;32787;53.316;8.670;2023-03-01T13:23:28;7.20;74.90
46816;DHT22;32787;53.316;8.670;2023-03-01T13:28:49;7.40;73.60
46816;DHT22;32787;53.316;8.670;2023-03-01T13:33:48;7.40;74.10
46816;DHT22;32787;53.316;8.670;2023-03-01T13:39:05;7.40;73.30
46816;DHT22;32787;53.316;8.670;2023-03-01T13:41:53;7.60;73.90
46816;DHT22;32787;53.316;8.670;2023-03-01T13:44:30;7.60;73.90
46816;DHT22;32787;53.316;8.670;2023-03-01T13:49:46;7.40;73.90
46816;DHT22;32787;53.316;8.670;2023-03-01T13:54:59;7.60;73.60
46816;DHT22;32787;53.316;8.670;2023-03-01T13:57:32;7.70;73.60
46816;DHT22;32787;53.316;8.670;2023-03-01T13:59:59;7.80;72.60
46816;DHT22;32787;53.316;8.670;2023-03-01T14:02:24;7.90;72.70
46816;DHT22;32787;53.316;8.670;2023-03-01T14:04:57;7.80;73.10
46816;DHT22;32787;53.316;8.670;2023-03-01T14:07:24;7.70;72.70
46816;DHT22;32787;53.316;8.670;2023-03-01T14:09:56;7.60;73.60
46816;DHT22;32787;53.316;8.670;2023-03-01T14:16:02;7.40;73.90
46816;DHT22;32787;53.316;8.670;2023-03-01T14:18:39;7.10;75.00
46816;DHT22;32787;53.316;8.670;2023-03-01T14:21:09;7.10;74.40
46816;DHT22;32787;53.316;8.670;2023-03-01T14:23:34;7.30;74.50
46816;DHT22;32787;53.316;8.670;2023-03-01T14:26:03;7.30;74.80
46816;DHT22;32787;53.316;8.670;2023-03-01T14:28:31;7.50;74.10
46816;DHT22;32787;53.316;8.670;2023-03-01T14:31:03;7.50;74.10
46816;DHT22;32787;53.316;8.670;2023-03-01T14:33:30;7.50;74.00
46816;DHT22;32787;53.316;8.670;2023-03-01T14:36:10;7.60;73.50
46816;DHT22;32787;53.316;8.670;2023-03-01T14:41:08;7.60;73.30
46816;DHT22;32787;53.316;8.670;2023-03-01T14:43:41;7.60;72.90
46816;DHT22;32787;53.316;8.670;2023-03-01T14:46:18;7.50;72.90
46816;DHT22;32787;53.316;8.670;2023-03-01T14:48:44;7.40;73.20
46816;DHT22;32787;53.316;8.670;2023-03-01T14:51:11;7.30;74.00
46816;DHT22;32787;53.316;8.670;2023-03-01T14:53:37;7.50;73.30
46816;DHT22;32787;53.316;8.670;2023-03-01T14:56:03;7.50;73.60
46816;DHT22;32787;53.316;8.670;2023-03-01T14:58:32;7.70;73.40
46816;DHT22;32787;53.316;8.670;2023-03-01T15:01:00;7.70;73.10
46816;DHT22;32787;53.316;8.670;2023-03-01T15:03:37;7.60;73.30
46816;DHT22;32787;53.316;8.670;2023-03-01T15:06:05;7.60;73.50
46816;DHT22;32787;53.316;8.670;2023-03-01T15:08:32;7.50;74.00
46816;DHT22;32787;53.316;8.670;2023-03-01T15:11:24;7.50;74.20
46816;DHT22;32787;53.316;8.670;2023-03-01T15:13:52;7.40;73.80
46816;DHT22;32787;53.316;8.670;2023-03-01T15:16:18;7.40;74.20
46816;DHT22;32787;53.316;8.670;2023-03-01T15:18:50;7.30;74.40
46816;DHT22;32787;53.316;8.670;2023-03-01T15:21:29;7.40;74.60
46816;DHT22;32787;53.316;8.670;2023-03-01T15:26:55;7.40;73.90
46816;DHT22;32787;53.316;8.670;2023-03-01T15:29:30;7.30;74.30
46816;DHT22;32787;53.316;8.670;2023-03-01T15:32:23;7.20;74.70
46816;DHT22;32787;53.316;8.670;2023-03-01T15:34:49;7.20;74.80
46816;DHT22;32787;53.316;8.670;2023-03-01T15:39:59;7.10;76.00
46816;DHT22;32787;53.316;8.670;2023-03-01T15:47:36;7.00;76.40
46816;DHT22;32787;53.316;8.670;2023-03-01T15:50:04;7.00;76.30
46816;DHT22;32787;53.316;8.670;2023-03-01T15:52:40;7.00;76.40
46816;DHT22;32787;53.316;8.670;2023-03-01T15:55:18;7.10;76.30
46816;DHT22;32787;53.316;8.670;2023-03-01T15:57:44;7.00;76.50
46816;DHT22;32787;53.316;8.670;2023-03-01T16:00:11;6.90;76.70
46816;DHT22;32787;53.316;8.670;2023-03-01T16:02:39;6.90;76.50
46816;DHT22;32787;53.316;8.670;2023-03-01T16:05:05;6.80;76.80
46816;DHT22;32787;53.316;8.670;2023-03-01T16:07:31;6.70;77.50
46816;DHT22;32787;53.316;8.670;2023-03-01T16:09:57;6.60;77.70
46816;DHT22;32787;53.316;8.670;2023-03-01T16:12:23;6.40;78.30
46816;DHT22;32787;53.316;8.670;2023-03-01T16:14:49;6.40;78.30
46816;DHT22;32787;53.316;8.670;2023-03-01T16:17:15;6.40;78.20
46816;DHT22;32787;53.316;8.670;2023-03-01T16:19:41;6.40;78.80
46816;DHT22;32787;53.316;8.670;2023-03-01T16:22:08;6.30;78.80
46816;DHT22;32787;53.316;8.670;2023-03-01T16:24:34;6.20;79.40
46816;DHT22;32787;53.316;8.670;2023-03-01T16:27:01;6.20;79.70
46816;DHT22;32787;53.316;8.670;2023-03-01T16:29:27;6.40;79.40
46816;DHT22;32787;53.316;8.670;2023-03-01T16:31:54;6.50;79.10
46816;DHT22;32787;53.316;8.670;2023-03-01T16:34:20;6.20;79.70
46816;DHT22;32787;53.316;8.670;2023-03-01T16:36:47;6.10;80.20
46816;DHT22;32787;53.316;8.670;2023-03-01T16:39:13;5.90;81.00
46816;DHT22;32787;53.316;8.670;2023-03-01T16:41:39;5.90;81.80
46816;DHT22;32787;53.316;8.670;2023-03-01T16:44:04;5.80;82.20
46816;DHT22;32787;53.316;8.670;2023-03-01T16:46:30;5.70;83.80
46816;DHT22;32787;53.316;8.670;2023-03-01T16:48:56;5.70;84.60
46816;DHT22;32787;53.316;8.670;2023-03-01T16:51:22;5.50;85.00
46816;DHT22;32787;53.316;8.670;2023-03-01T16:53:49;5.30;85.50
46816;DHT22;32787;53.316;8.670;2023-03-01T16:56:15;5.10;86.00
46816;DHT22;32787;53.316;8.670;2023-03-01T16:58:42;5.10;86.50
46816;DHT22;32787;53.316;8.670;2023-03-01T17:03:38;4.90;87.00
46816;DHT22;32787;53.316;8.670;2023-03-01T17:06:07;4.80;87.30
46816;DHT22;32787;53.316;8.670;2023-03-01T17:08:33;4.70;87.60
46816;DHT22;32787;53.316;8.670;2023-03-01T17:11:19;4.70;87.60
46816;DHT22;32787;53.316;8.670;2023-03-01T17:13:45;4.50;87.90
46816;DHT22;32787;53.316;8.670;2023-03-01T17:16:14;4.40;88.30
46816;DHT22;32787;53.316;8.670;2023-03-01T17:18:40;4.40;88.60
46816;DHT22;32787;53.316;8.670;2023-03-01T17:21:06;4.30;88.60
46816;DHT22;32787;53.316;8.670;2023-03-01T17:23:33;4.20;89.00
46816;DHT22;32787;53.316;8.670;2023-03-01T17:25:59;4.20;88.80
46816;DHT22;32787;53.316;8.670;2023-03-01T17:28:27;4.10;88.90
46816;DHT22;32787;53.316;8.670;2023-03-01T17:30:54;4.00;89.10
46816;DHT22;32787;53.316;8.670;2023-03-01T17:33:20;4.00;89.10